createdAt,value
2023-03-31T00:02:16.412Z,3.67
2023-03-31T00:04:53.040Z,4.83
2023-03-31T00:07:24.659Z,3.80
2023-03-31T00:10:07.099Z,3.87
2023-03-31T00:12:47.320Z,4.07
2023-03-31T00:15:16.402Z,4.50
2023-03-31T00:17:51.255Z,4.23
2023-03-31T00:20:20.572Z,4.03
2023-03-31T00:22:49.257Z,3.90
2023-03-31T00:25:17.632Z,4.47
2023-03-31T00:27:47.186Z,3.87
2023-03-31T00:30:17.187Z,4.43
2023-03-31T00:32:49.367Z,5.70
2023-03-31T00:35:18.239Z,5.43
2023-03-31T00:37:47.613Z,5.93
2023-03-31T00:40:15.917Z,6.57
2023-03-31T00:42:44.818Z,4.90
2023-03-31T00:45:16.827Z,4.83
2023-03-31T00:47:52.283Z,5.80
2023-03-31T00:50:27.607Z,6.13
2023-03-31T00:52:58.388Z,7.20
2023-03-31T00:55:33.620Z,6.27
2023-03-31T00:58:02.429Z,5.77
2023-03-31T01:00:31.947Z,5.23
2023-03-31T01:03:10.610Z,6.13
2023-03-31T01:05:50.516Z,5.53
2023-03-31T01:08:22.615Z,6.33
2023-03-31T01:10:57.616Z,5.10
2023-03-31T01:13:28.128Z,5.83
2023-03-31T01:15:57.487Z,5.77
2023-03-31T01:18:26.069Z,6.37
2023-03-31T01:21:31.039Z,6.53
2023-03-31T01:24:26.743Z,6.30
2023-03-31T01:27:26.430Z,6.90
2023-03-31T01:30:23.618Z,6.80
2023-03-31T01:33:40.812Z,6.13
2023-03-31T01:36:17.392Z,4.93
2023-03-31T01:39:02.318Z,4.03
2023-03-31T01:41:49.447Z,3.27
2023-03-31T01:44:27.348Z,3.83
2023-03-31T01:46:59.297Z,3.23
2023-03-31T01:49:42.508Z,3.30
2023-03-31T01:52:40.256Z,5.07
2023-03-31T01:55:47.380Z,4.73
2023-03-31T01:58:15.360Z,3.97
2023-03-31T02:00:57.438Z,2.93
2023-03-31T02:03:30.417Z,2.50
2023-03-31T02:06:04.173Z,2.77
2023-03-31T02:08:36.890Z,2.77
2023-03-31T02:11:06.053Z,2.70
2023-03-31T02:13:40.258Z,3.10
2023-03-31T02:16:15.927Z,3.00
2023-03-31T02:18:44.968Z,3.63
2023-03-31T02:21:15.253Z,3.07
2023-03-31T02:23:45.033Z,3.20
2023-03-31T02:26:21.093Z,3.50
2023-03-31T02:28:49.157Z,3.40
2023-03-31T02:31:49.435Z,3.57
2023-03-31T02:34:17.786Z,3.80
2023-03-31T02:36:49.638Z,3.30
2023-03-31T02:39:27.920Z,3.50
2023-03-31T02:41:57.271Z,3.17
2023-03-31T02:44:25.429Z,3.47
2023-03-31T02:46:54.204Z,3.47
2023-03-31T02:49:22.800Z,3.67
2023-03-31T02:52:12.711Z,4.07
2023-03-31T02:55:10.243Z,4.10
2023-03-31T02:58:24.157Z,5.43
2023-03-31T03:01:09.818Z,4.20
2023-03-31T03:03:50.628Z,5.23
2023-03-31T03:06:40.293Z,4.83
2023-03-31T03:09:39.632Z,4.80
2023-03-31T03:12:25.324Z,5.80
2023-03-31T03:15:29.907Z,9.87
2023-03-31T03:17:58.761Z,7.13
2023-03-31T03:20:29.245Z,7.17
2023-03-31T03:22:59.664Z,9.87
2023-03-31T03:25:28.113Z,10.17
2023-03-31T03:27:57.928Z,9.90
2023-03-31T03:30:26.140Z,9.60
2023-03-31T03:32:56.545Z,11.07
2023-03-31T03:35:25.933Z,12.80
2023-03-31T03:37:54.596Z,15.57
2023-03-31T03:40:23.140Z,15.40
2023-03-31T03:42:52.202Z,15.33
2023-03-31T03:45:20.968Z,16.43
2023-03-31T03:47:49.599Z,19.63
2023-03-31T03:50:20.628Z,18.13
2023-03-31T03:52:49.808Z,20.43
2023-03-31T03:55:24.104Z,19.23
2023-03-31T03:57:52.932Z,19.70
2023-03-31T04:00:21.374Z,19.80
2023-03-31T04:02:49.567Z,21.83
2023-03-31T04:05:18.062Z,17.93
2023-03-31T04:07:46.371Z,19.77
2023-03-31T04:10:16.254Z,19.73
2023-03-31T04:12:44.867Z,17.67
2023-03-31T04:15:15.387Z,17.23
2023-03-31T04:17:51.211Z,15.23
2023-03-31T04:20:19.615Z,13.73
2023-03-31T04:22:52.732Z,13.77
2023-03-31T04:25:23.206Z,12.67
2023-03-31T04:27:55.358Z,12.73
2023-03-31T04:30:31.302Z,12.73
2023-03-31T04:33:01.579Z,13.57
2023-03-31T04:35:49.954Z,12.73
2023-03-31T04:38:21.761Z,12.93
2023-03-31T04:40:51.721Z,14.13
2023-03-31T04:43:21.642Z,12.90
2023-03-31T04:45:50.890Z,14.23
2023-03-31T04:48:20.494Z,13.73
2023-03-31T04:50:48.812Z,15.10
2023-03-31T04:53:16.948Z,13.87
2023-03-31T04:55:52.717Z,14.87
2023-03-31T04:58:20.904Z,17.53
2023-03-31T05:00:54.450Z,19.10
2023-03-31T05:03:26.792Z,31.13
2023-03-31T05:06:18.370Z,41.13
2023-03-31T05:08:48.651Z,46.27
2023-03-31T05:11:21.461Z,49.65
2023-03-31T05:13:50.424Z,45.58
2023-03-31T05:16:18.731Z,40.28
2023-03-31T05:18:48.959Z,35.28
2023-03-31T05:21:20.539Z,32.55
2023-03-31T05:23:50.286Z,22.60
2023-03-31T05:26:18.845Z,19.23
2023-03-31T05:28:49.847Z,17.83
2023-03-31T05:31:18.690Z,13.90
2023-03-31T05:33:47.484Z,13.93
2023-03-31T05:36:19.782Z,12.52
2023-03-31T05:38:48.042Z,13.27
2023-03-31T05:41:21.136Z,13.40
2023-03-31T05:43:49.785Z,11.02
2023-03-31T05:46:18.967Z,10.95
2023-03-31T05:48:50.886Z,10.73
2023-03-31T05:51:19.235Z,10.15
2023-03-31T05:53:47.450Z,10.05
2023-03-31T05:56:15.781Z,8.82
2023-03-31T05:58:46.378Z,9.18
2023-03-31T06:01:20.026Z,8.77
2023-03-31T06:04:13.989Z,10.63
2023-03-31T06:06:44.953Z,9.45
2023-03-31T06:09:14.278Z,10.00
2023-03-31T06:11:44.322Z,10.50
2023-03-31T06:14:12.783Z,11.57
2023-03-31T06:16:41.060Z,10.43
2023-03-31T06:19:09.951Z,10.10
2023-03-31T06:21:38.911Z,8.90
2023-03-31T06:24:09.126Z,8.13
2023-03-31T06:26:38.396Z,8.17
2023-03-31T06:29:06.725Z,8.40
2023-03-31T06:31:35.774Z,6.90
2023-03-31T06:34:06.099Z,6.27
2023-03-31T06:36:34.567Z,5.47
2023-03-31T06:39:03.296Z,6.60
2023-03-31T06:41:31.512Z,6.10
2023-03-31T06:43:59.710Z,6.13
2023-03-31T06:46:28.427Z,6.20
2023-03-31T06:48:59.505Z,6.40
2023-03-31T06:51:29.254Z,6.63
2023-03-31T06:53:58.972Z,5.70
2023-03-31T06:56:28.738Z,4.93
2023-03-31T06:58:57.139Z,5.43
2023-03-31T07:01:26.470Z,6.30
2023-03-31T07:03:58.179Z,6.27
2023-03-31T07:06:26.743Z,6.00
2023-03-31T07:08:54.796Z,5.37
2023-03-31T07:11:22.993Z,5.63
2023-03-31T07:13:51.874Z,5.07
2023-03-31T07:16:20.511Z,5.20
2023-03-31T07:18:55.174Z,4.93
2023-03-31T07:21:23.469Z,4.53
2023-03-31T07:23:52.419Z,5.00
2023-03-31T07:26:21.841Z,4.60
2023-03-31T07:28:52.345Z,4.50
2023-03-31T07:31:23.654Z,4.17
2023-03-31T07:33:54.567Z,5.10
2023-03-31T07:36:24.518Z,4.20
2023-03-31T07:38:57.104Z,4.40
2023-03-31T07:41:26.737Z,4.70
2023-03-31T07:43:55.385Z,4.93
2023-03-31T07:46:26.508Z,5.37
2023-03-31T07:48:55.938Z,4.83
2023-03-31T07:51:27.623Z,4.50
2023-03-31T07:53:58.661Z,5.97
2023-03-31T07:56:27.776Z,4.83
2023-03-31T07:58:58.863Z,4.27
2023-03-31T08:01:30.293Z,4.40
2023-03-31T08:04:00.266Z,4.10
2023-03-31T08:06:31.746Z,3.97
2023-03-31T08:09:00.621Z,3.50
2023-03-31T08:11:29.023Z,5.20
2023-03-31T08:13:57.434Z,4.53
2023-03-31T08:16:25.790Z,3.97
2023-03-31T08:18:54.922Z,3.50
2023-03-31T08:21:24.608Z,3.27
2023-03-31T08:23:57.107Z,3.13
2023-03-31T08:26:28.137Z,3.60
2023-03-31T08:28:59.725Z,4.33
2023-03-31T08:31:29.491Z,3.80
2023-03-31T08:33:57.842Z,3.70
2023-03-31T08:36:27.676Z,3.90
2023-03-31T08:38:57.812Z,4.30
2023-03-31T08:42:03.395Z,3.70
2023-03-31T08:44:38.187Z,3.53
2023-03-31T08:47:10.715Z,15.27
2023-03-31T08:49:46.062Z,4.63
2023-03-31T08:52:25.115Z,3.80
2023-03-31T08:54:59.609Z,4.30
2023-03-31T08:57:43.646Z,3.93
2023-03-31T09:00:18.214Z,3.60
2023-03-31T09:03:17.499Z,3.63
2023-03-31T09:06:02.765Z,3.57
2023-03-31T09:08:40.122Z,3.20
2023-03-31T09:11:31.384Z,3.20
2023-03-31T09:14:18.877Z,3.80
2023-03-31T09:16:47.585Z,3.60
2023-03-31T09:19:23.509Z,3.13
2023-03-31T09:21:54.088Z,3.10
2023-03-31T09:24:32.762Z,3.17
2023-03-31T09:27:07.985Z,3.47
2023-03-31T09:30:10.312Z,4.20
2023-03-31T09:32:44.448Z,4.63
2023-03-31T09:35:23.081Z,4.03
2023-03-31T09:37:53.263Z,18.80
2023-03-31T09:40:24.361Z,5.00
2023-03-31T09:42:58.952Z,3.93
2023-03-31T09:45:26.967Z,4.37
2023-03-31T09:48:07.037Z,3.53
2023-03-31T09:50:47.482Z,5.87
2023-03-31T09:53:20.299Z,5.43
2023-03-31T09:55:53.067Z,5.23
2023-03-31T09:58:25.214Z,5.43
2023-03-31T10:00:58.990Z,8.17
2023-03-31T10:03:37.147Z,4.33
2023-03-31T10:06:11.871Z,3.87
2023-03-31T10:08:56.014Z,3.80
2023-03-31T10:11:27.910Z,3.47
2023-03-31T10:14:04.140Z,3.90
2023-03-31T10:16:57.486Z,3.93
2023-03-31T10:19:25.641Z,4.20
2023-03-31T10:22:22.121Z,4.23
2023-03-31T10:24:51.944Z,5.20
2023-03-31T10:27:29.479Z,4.20
2023-03-31T10:30:05.592Z,4.40
2023-03-31T10:32:44.203Z,4.80
2023-03-31T10:35:30.234Z,27.23
2023-03-31T10:38:00.470Z,5.63
2023-03-31T10:40:30.421Z,5.30
2023-03-31T10:43:04.208Z,6.07
2023-03-31T10:45:42.457Z,5.63
2023-03-31T10:48:26.975Z,4.70
2023-03-31T10:51:00.374Z,4.00
2023-03-31T10:53:42.448Z,4.73
2023-03-31T10:56:15.812Z,4.10
2023-03-31T10:59:05.453Z,4.00
2023-03-31T11:02:02.192Z,10.67
2023-03-31T11:04:45.150Z,4.47
2023-03-31T11:07:49.126Z,4.70
2023-03-31T11:10:17.606Z,4.70
2023-03-31T11:13:00.216Z,5.10
2023-03-31T11:15:42.979Z,4.57
2023-03-31T11:18:19.139Z,4.30
2023-03-31T11:21:12.431Z,3.83
2023-03-31T11:23:44.450Z,4.37
2023-03-31T11:26:58.326Z,4.03
2023-03-31T11:29:41.629Z,4.33
2023-03-31T11:32:34.697Z,4.83
2023-03-31T11:35:17.190Z,8.43
2023-03-31T11:38:07.074Z,5.13
2023-03-31T11:40:43.875Z,5.37
2023-03-31T11:43:22.819Z,5.40
2023-03-31T11:46:06.095Z,5.63
2023-03-31T11:49:00.103Z,5.93
2023-03-31T11:51:40.587Z,5.20
2023-03-31T11:54:15.612Z,4.73
2023-03-31T11:56:44.215Z,4.37
2023-03-31T11:59:15.962Z,3.67
2023-03-31T12:01:54.704Z,3.27
2023-03-31T12:04:41.133Z,4.00
2023-03-31T12:07:39.765Z,13.87
2023-03-31T12:10:38.409Z,3.70
2023-03-31T12:13:19.039Z,3.20
2023-03-31T12:16:01.874Z,3.33
2023-03-31T12:18:36.304Z,3.20
2023-03-31T12:21:05.974Z,2.97
2023-03-31T12:23:41.198Z,3.23
2023-03-31T12:26:24.377Z,2.90
2023-03-31T12:28:58.901Z,12.77
2023-03-31T12:31:34.257Z,5.83
2023-03-31T12:34:07.961Z,5.60
2023-03-31T12:37:01.097Z,3.30
2023-03-31T12:39:37.641Z,3.20
2023-03-31T12:42:25.205Z,2.87
2023-03-31T12:45:15.062Z,2.63
2023-03-31T12:48:13.762Z,2.93
2023-03-31T12:51:26.126Z,2.90
2023-03-31T12:54:32.356Z,2.57
2023-03-31T12:57:09.533Z,2.60
2023-03-31T12:59:41.327Z,2.83
2023-03-31T13:02:24.505Z,2.90
2023-03-31T13:04:53.938Z,2.33
2023-03-31T13:07:33.831Z,2.43
2023-03-31T13:10:32.363Z,2.10
2023-03-31T13:13:01.998Z,2.57
2023-03-31T13:15:32.818Z,2.63
2023-03-31T13:18:09.612Z,2.90
2023-03-31T13:23:37.556Z,2.50
2023-03-31T13:26:07.503Z,2.90
2023-03-31T13:28:45.928Z,3.00
2023-03-31T13:31:15.272Z,2.90
2023-03-31T13:34:00.504Z,11.57
2023-03-31T13:36:44.257Z,3.90
2023-03-31T13:39:47.747Z,3.53
2023-03-31T13:42:38.125Z,4.50
2023-03-31T13:45:21.344Z,4.30
2023-03-31T13:48:15.730Z,3.57
2023-03-31T13:51:01.944Z,3.73
2023-03-31T13:53:48.569Z,3.17
2023-03-31T13:56:29.542Z,3.43
2023-03-31T13:59:18.763Z,4.17
2023-03-31T14:02:06.445Z,3.07
2023-03-31T14:05:01.473Z,3.97
2023-03-31T14:07:32.327Z,3.57
2023-03-31T14:10:07.555Z,3.90
2023-03-31T14:12:38.374Z,3.87
2023-03-31T14:15:21.661Z,3.87
2023-03-31T14:17:49.686Z,4.57
2023-03-31T14:20:28.204Z,4.40
2023-03-31T14:23:23.982Z,3.80
2023-03-31T14:26:30.618Z,4.17
2023-03-31T14:29:13.041Z,3.50
2023-03-31T14:32:14.357Z,3.77
2023-03-31T14:35:26.917Z,22.87
2023-03-31T14:38:02.250Z,4.80
2023-03-31T14:40:31.164Z,4.70
2023-03-31T14:42:59.484Z,5.73
2023-03-31T14:45:31.878Z,3.73
2023-03-31T14:48:05.878Z,4.57
2023-03-31T14:50:40.111Z,3.60
2023-03-31T14:53:15.683Z,3.63
2023-03-31T14:55:57.878Z,4.53
2023-03-31T14:58:36.142Z,3.90
2023-03-31T15:01:26.612Z,3.70
2023-03-31T15:03:56.270Z,4.10
2023-03-31T15:06:28.357Z,3.80
2023-03-31T15:08:57.965Z,4.30
2023-03-31T15:11:29.208Z,4.27
2023-03-31T15:14:05.067Z,4.30
2023-03-31T15:16:45.119Z,4.00
2023-03-31T15:19:23.263Z,4.20
2023-03-31T15:22:05.193Z,8.03
2023-03-31T15:24:38.409Z,7.93
2023-03-31T15:27:20.369Z,7.53
2023-03-31T15:29:51.030Z,7.57
2023-03-31T15:32:28.381Z,4.97
2023-03-31T15:35:14.892Z,6.47
2023-03-31T15:37:54.649Z,6.53
2023-03-31T15:40:29.939Z,25.00
2023-03-31T15:43:25.961Z,12.63
2023-03-31T15:45:59.482Z,9.80
2023-03-31T15:48:50.543Z,11.50
2023-03-31T15:51:21.163Z,11.27
2023-03-31T15:53:54.237Z,10.87
2023-03-31T15:56:35.047Z,9.30
2023-03-31T15:59:27.675Z,10.10
2023-03-31T16:02:00.308Z,8.73
2023-03-31T16:04:33.582Z,7.70
2023-03-31T16:07:10.456Z,8.10
2023-03-31T16:09:47.047Z,7.20
2023-03-31T16:12:30.607Z,8.10
2023-03-31T16:15:08.247Z,7.50
2023-03-31T16:17:40.582Z,9.70
2023-03-31T16:20:25.926Z,9.83
2023-03-31T16:22:58.311Z,10.43
2023-03-31T16:25:31.320Z,9.97
2023-03-31T16:28:03.320Z,9.60
2023-03-31T16:30:41.708Z,10.17
2023-03-31T16:33:10.858Z,10.07
2023-03-31T16:35:44.795Z,8.97
2023-03-31T16:38:16.508Z,9.00
2023-03-31T16:40:50.758Z,6.50
2023-03-31T16:43:23.821Z,4.77
2023-03-31T16:45:59.497Z,4.47
2023-03-31T16:48:29.467Z,4.13
2023-03-31T16:51:04.585Z,5.10
2023-03-31T16:53:35.102Z,4.57
2023-03-31T16:56:08.595Z,4.60
2023-03-31T16:58:38.228Z,4.20
2023-03-31T17:01:07.903Z,4.00
2023-03-31T17:03:44.468Z,4.57
2023-03-31T17:06:13.831Z,4.10
2023-03-31T17:08:44.150Z,4.73
2023-03-31T17:11:14.661Z,5.87
2023-03-31T17:13:45.169Z,5.50
2023-03-31T17:16:22.120Z,5.83
2023-03-31T17:18:58.179Z,6.00
2023-03-31T17:21:26.472Z,4.90
2023-03-31T17:23:55.408Z,4.80
2023-03-31T17:26:29.552Z,4.97
2023-03-31T17:29:01.371Z,4.77
2023-03-31T17:31:32.469Z,5.80
2023-03-31T17:34:01.861Z,6.53
2023-03-31T17:36:31.400Z,6.43
2023-03-31T17:39:05.370Z,5.63
2023-03-31T17:41:36.893Z,5.37
2023-03-31T17:44:05.368Z,5.17
2023-03-31T17:46:36.482Z,5.77
2023-03-31T17:49:08.642Z,5.47
2023-03-31T17:51:37.656Z,5.63
2023-03-31T17:54:07.337Z,5.40
2023-03-31T17:56:36.876Z,5.17
2023-03-31T17:59:05.685Z,5.97
2023-03-31T18:01:34.745Z,5.27
2023-03-31T18:04:03.151Z,5.20
2023-03-31T18:06:36.086Z,5.63
2023-03-31T18:09:06.274Z,5.47
2023-03-31T18:11:39.177Z,4.87
2023-03-31T18:14:11.494Z,5.40
2023-03-31T18:16:40.347Z,4.80
2023-03-31T18:19:08.573Z,7.53
2023-03-31T18:21:39.776Z,4.70
2023-03-31T18:24:08.454Z,4.60
2023-03-31T18:26:37.116Z,4.43
2023-03-31T18:29:08.190Z,4.40
2023-03-31T18:31:36.389Z,4.30
2023-03-31T18:34:04.665Z,4.40
2023-03-31T18:36:35.786Z,4.60
2023-03-31T18:39:04.600Z,4.07
2023-03-31T18:41:32.909Z,3.97
2023-03-31T18:44:01.426Z,4.30
2023-03-31T18:46:29.738Z,3.00
2023-03-31T18:48:58.602Z,4.17
2023-03-31T18:51:27.494Z,3.63
2023-03-31T18:53:59.789Z,3.47
2023-03-31T18:56:28.455Z,3.37
2023-03-31T18:59:00.260Z,3.63
2023-03-31T19:01:29.582Z,3.63
2023-03-31T19:04:24.305Z,3.13
2023-03-31T19:06:56.379Z,3.27
2023-03-31T19:09:28.247Z,3.10
2023-03-31T19:12:00.307Z,3.00
2023-03-31T19:14:33.002Z,3.00
2023-03-31T19:17:04.912Z,3.30
2023-03-31T19:19:36.677Z,7.30
2023-03-31T19:22:12.640Z,3.63
2023-03-31T19:24:40.906Z,5.73
2023-03-31T19:27:11.278Z,3.60
2023-03-31T19:29:42.792Z,3.57
2023-03-31T19:32:11.006Z,3.67
2023-03-31T19:34:40.316Z,3.37
2023-03-31T19:37:09.961Z,3.97
2023-03-31T19:39:39.005Z,3.07
2023-03-31T19:42:07.563Z,2.87
2023-03-31T19:44:38.195Z,3.40
2023-03-31T19:47:06.604Z,3.30
2023-03-31T19:49:36.284Z,2.80
2023-03-31T19:52:07.592Z,3.83
2023-03-31T19:54:38.129Z,3.10
2023-03-31T19:57:13.736Z,2.97
2023-03-31T19:59:42.709Z,2.97
2023-03-31T20:02:15.981Z,3.17
2023-03-31T20:04:48.111Z,2.90
2023-03-31T20:07:16.343Z,3.30
2023-03-31T20:09:44.728Z,4.13
2023-03-31T20:12:14.615Z,3.20
2023-03-31T20:14:43.956Z,3.13
2023-03-31T20:17:18.537Z,3.00
2023-03-31T20:19:47.562Z,3.40
2023-03-31T20:22:18.394Z,2.70
2023-03-31T20:24:50.609Z,3.00
2023-03-31T20:27:19.038Z,3.20
2023-03-31T20:29:51.250Z,3.53
2023-03-31T20:32:22.778Z,3.20
2023-03-31T20:34:51.362Z,3.13
2023-03-31T20:37:20.660Z,3.70
2023-03-31T20:39:50.149Z,3.17
2023-03-31T20:42:19.220Z,2.93
2023-03-31T20:44:47.885Z,3.50
2023-03-31T20:47:17.909Z,3.53
2023-03-31T20:49:46.760Z,3.20
2023-03-31T20:52:16.032Z,4.00
2023-03-31T20:54:44.499Z,3.30
2023-03-31T20:57:14.784Z,3.30
2023-03-31T20:59:44.311Z,4.60
2023-03-31T21:02:16.736Z,3.37
2023-03-31T21:04:44.903Z,2.87
2023-03-31T21:07:13.755Z,3.03
2023-03-31T21:09:44.622Z,3.43
2023-03-31T21:12:16.123Z,3.90
2023-03-31T21:14:45.738Z,4.57
2023-03-31T21:17:14.127Z,4.00
2023-03-31T21:19:42.425Z,4.53
2023-03-31T21:22:10.581Z,3.43
2023-03-31T21:24:39.042Z,3.53
2023-03-31T21:27:07.273Z,3.90
2023-03-31T21:29:38.410Z,4.20
2023-03-31T21:32:07.464Z,4.07
2023-03-31T21:34:36.847Z,3.17
2023-03-31T21:37:05.214Z,3.60
2023-03-31T21:39:38.877Z,3.63
2023-03-31T21:42:07.073Z,4.50
2023-03-31T21:44:37.839Z,3.77
2023-03-31T21:47:08.255Z,4.07
2023-03-31T21:49:38.222Z,3.70
2023-03-31T21:52:08.863Z,3.27
2023-03-31T21:54:37.017Z,3.53
2023-03-31T21:57:05.495Z,3.40
2023-03-31T21:59:58.591Z,3.70
2023-03-31T22:02:27.226Z,3.87
2023-03-31T22:05:00.072Z,3.87
2023-03-31T22:07:28.560Z,5.87
2023-03-31T22:09:57.133Z,8.03
2023-03-31T22:12:29.621Z,8.90
2023-03-31T22:14:58.101Z,10.10
2023-03-31T22:17:45.639Z,10.27
2023-03-31T22:20:14.320Z,9.30
2023-03-31T22:22:42.623Z,7.83
2023-03-31T22:25:11.005Z,5.40
2023-03-31T22:27:39.208Z,4.40
2023-03-31T22:30:08.294Z,4.10
2023-03-31T22:32:37.158Z,3.43
2023-03-31T22:35:06.014Z,3.00
2023-03-31T22:37:34.228Z,3.83
2023-03-31T22:40:02.329Z,3.93
2023-03-31T22:42:30.721Z,3.10
2023-03-31T22:44:59.810Z,3.23
2023-03-31T22:47:33.852Z,3.37
2023-03-31T22:50:02.609Z,2.77
2023-03-31T22:52:30.851Z,3.20
2023-03-31T22:54:59.579Z,3.87
2023-03-31T22:57:28.294Z,3.57
2023-03-31T22:59:56.997Z,3.43
2023-03-31T23:02:25.197Z,3.30
2023-03-31T23:04:53.438Z,3.50
2023-03-31T23:07:22.670Z,3.97
2023-03-31T23:09:51.505Z,4.53
2023-03-31T23:12:21.775Z,4.27
2023-03-31T23:14:51.513Z,4.13
2023-03-31T23:17:20.010Z,3.40
2023-03-31T23:19:48.153Z,3.80
2023-03-31T23:22:16.419Z,3.57
2023-03-31T23:24:46.875Z,3.37
2023-03-31T23:27:15.868Z,3.07
2023-03-31T23:29:48.152Z,3.20
2023-03-31T23:32:16.695Z,3.20
2023-03-31T23:34:48.234Z,4.00
2023-03-31T23:37:16.977Z,3.13
2023-03-31T23:39:46.013Z,3.33
2023-03-31T23:42:20.052Z,3.60
2023-03-31T23:44:49.541Z,3.43
2023-03-31T23:47:17.520Z,3.40
2023-03-31T23:49:47.953Z,3.07
2023-03-31T23:52:16.201Z,2.90
2023-03-31T23:54:44.673Z,2.97
2023-03-31T23:57:12.900Z,2.90
2023-03-31T23:59:41.650Z,3.07
